PAL741 VTBS-RPLL
Flight info
| Callsign | PAL741 |
|---|---|
| Flight time | N/A |
| Altitude | 35000 |
| Route | DOSBU1E DOSBU L880 VEMKO G474 ANINA/K0850F350 G474 PCA L628 MESOX/N0457F350 L628 ARESI/N0457F370 L628 DODUS W3 LUBAN LUBAN1D |
| Aircraft | A321/M-SDE3FGHIRWY/LB1 |
Departure
| Time | 2026-05-06 04:44 |
|---|---|
| Airport | Suvarnabhumi Airport (VTBS) |
Arrival
| Time | N/A |
|---|---|
| Airport | Ninoy Aquino International Airport (RPLL) |
| Time | Latitude | Longitude | Altitude | Speed | Heading |
|---|---|---|---|---|---|
| 2026-05-06 04:23 | 13.69330 | 100.75545 | 14 ft | 0 kts | 284° |
| 2026-05-06 04:27 | 13.69329 | 100.75549 | 14 ft | 2 kts | 284° |
| 2026-05-06 04:27 | 13.69325 | 100.75564 | 14 ft | 2 kts | 284° |
| 2026-05-06 04:27 | 13.69323 | 100.75573 | 13 ft | 2 kts | 284° |
| 2026-05-06 04:27 | 13.69321 | 100.75588 | 13 ft | 2 kts | 269° |
| 2026-05-06 04:28 | 13.69322 | 100.75603 | 13 ft | 2 kts | 259° |
| 2026-05-06 04:28 | 13.69326 | 100.75619 | 13 ft | 2 kts | 247° |
| 2026-05-06 04:28 | 13.69333 | 100.75633 | 12 ft | 2 kts | 236° |
| 2026-05-06 04:28 | 13.69342 | 100.75644 | 12 ft | 2 kts | 225° |
| 2026-05-06 04:29 | 13.69353 | 100.75653 | 12 ft | 2 kts | 213° |
| 2026-05-06 04:29 | 13.69366 | 100.75661 | 11 ft | 2 kts | 202° |
| 2026-05-06 04:29 | 13.69375 | 100.75665 | 11 ft | 0 kts | 195° |
| 2026-05-06 04:29 | 13.69381 | 100.75666 | 12 ft | 0 kts | 194° |
| 2026-05-06 04:32 | 13.69380 | 100.75665 | 11 ft | 1 kts | 194° |
| 2026-05-06 04:32 | 13.69350 | 100.75657 | 11 ft | 5 kts | 195° |
| 2026-05-06 04:32 | 13.69304 | 100.75645 | 12 ft | 7 kts | 195° |
| 2026-05-06 04:33 | 13.69256 | 100.75632 | 13 ft | 7 kts | 194° |
| 2026-05-06 04:33 | 13.69207 | 100.75622 | 15 ft | 7 kts | 180° |
| 2026-05-06 04:33 | 13.69156 | 100.75660 | 15 ft | 11 kts | 113° |
| 2026-05-06 04:33 | 13.69133 | 100.75747 | 14 ft | 13 kts | 104° |
| 2026-05-06 04:34 | 13.69109 | 100.75841 | 12 ft | 12 kts | 112° |
| 2026-05-06 04:34 | 13.69038 | 100.75875 | 13 ft | 12 kts | 192° |
| 2026-05-06 04:34 | 13.68952 | 100.75853 | 14 ft | 13 kts | 194° |
| 2026-05-06 04:34 | 13.68860 | 100.75829 | 15 ft | 14 kts | 194° |
| 2026-05-06 04:35 | 13.68760 | 100.75802 | 15 ft | 15 kts | 194° |
| 2026-05-06 04:35 | 13.68651 | 100.75774 | 15 ft | 16 kts | 194° |
| 2026-05-06 04:35 | 13.68535 | 100.75742 | 15 ft | 17 kts | 195° |
| 2026-05-06 04:35 | 13.68455 | 100.75700 | 15 ft | 12 kts | 246° |
| 2026-05-06 04:36 | 13.68468 | 100.75603 | 15 ft | 14 kts | 284° |
| 2026-05-06 04:36 | 13.68495 | 100.75497 | 15 ft | 15 kts | 284° |
| 2026-05-06 04:36 | 13.68524 | 100.75381 | 15 ft | 17 kts | 285° |
| 2026-05-06 04:36 | 13.68554 | 100.75256 | 15 ft | 18 kts | 283° |
| 2026-05-06 04:37 | 13.68587 | 100.75127 | 15 ft | 19 kts | 284° |
| 2026-05-06 04:37 | 13.68621 | 100.74992 | 15 ft | 19 kts | 284° |
| 2026-05-06 04:37 | 13.68657 | 100.74853 | 15 ft | 20 kts | 284° |
| 2026-05-06 04:37 | 13.68692 | 100.74709 | 15 ft | 21 kts | 284° |
| 2026-05-06 04:38 | 13.68729 | 100.74564 | 15 ft | 19 kts | 284° |
| 2026-05-06 04:38 | 13.68763 | 100.74427 | 15 ft | 18 kts | 284° |
| 2026-05-06 04:38 | 13.68793 | 100.74310 | 15 ft | 17 kts | 284° |
| 2026-05-06 04:38 | 13.68838 | 100.74219 | 15 ft | 14 kts | 337° |
| 2026-05-06 04:39 | 13.68941 | 100.74234 | 15 ft | 15 kts | 14° |
| 2026-05-06 04:39 | 13.69052 | 100.74263 | 15 ft | 17 kts | 14° |
| 2026-05-06 04:39 | 13.69172 | 100.74295 | 15 ft | 18 kts | 14° |
| 2026-05-06 04:39 | 13.69297 | 100.74328 | 14 ft | 19 kts | 14° |
| 2026-05-06 04:40 | 13.69431 | 100.74362 | 15 ft | 19 kts | 14° |
| 2026-05-06 04:40 | 13.69567 | 100.74399 | 14 ft | 20 kts | 14° |
| 2026-05-06 04:40 | 13.69709 | 100.74435 | 15 ft | 19 kts | 15° |
| 2026-05-06 04:40 | 13.69820 | 100.74464 | 15 ft | 12 kts | 6° |
| 2026-05-06 04:41 | 13.69885 | 100.74410 | 15 ft | 14 kts | 285° |
| 2026-05-06 04:41 | 13.69908 | 100.74317 | 15 ft | 13 kts | 284° |
| 2026-05-06 04:41 | 13.69933 | 100.74217 | 15 ft | 15 kts | 284° |
| 2026-05-06 04:41 | 13.69961 | 100.74106 | 15 ft | 16 kts | 284° |
| 2026-05-06 04:42 | 13.69989 | 100.73992 | 15 ft | 14 kts | 284° |
| 2026-05-06 04:42 | 13.70007 | 100.73888 | 15 ft | 14 kts | 265° |
| 2026-05-06 04:42 | 13.69947 | 100.73825 | 14 ft | 12 kts | 194° |
| 2026-05-06 04:42 | 13.69915 | 100.73817 | 14 ft | 0 kts | 194° |
| 2026-05-06 04:43 | 13.69907 | 100.73814 | 14 ft | 4 kts | 194° |
| 2026-05-06 04:43 | 13.69742 | 100.73771 | 14 ft | 54 kts | 194° |
| 2026-05-06 04:43 | 13.69132 | 100.73611 | 15 ft | 122 kts | 193° |
| 2026-05-06 04:44 | 13.68120 | 100.73344 | 17 ft | 176 kts | 194° |
| 2026-05-06 04:44 | 13.66856 | 100.73012 | 465 ft | 188 kts | 193° |
| 2026-05-06 04:44 | 13.65631 | 100.72712 | 1331 ft | 176 kts | 192° |
| 2026-05-06 04:44 | 13.64489 | 100.72465 | 2062 ft | 159 kts | 189° |
| 2026-05-06 04:45 | 13.63423 | 100.72234 | 2378 ft | 158 kts | 192° |
| 2026-05-06 04:45 | 13.62309 | 100.71960 | 2565 ft | 167 kts | 192° |
| 2026-05-06 04:45 | 13.61142 | 100.71671 | 2728 ft | 180 kts | 192° |
| 2026-05-06 04:45 | 13.59809 | 100.71349 | 2617 ft | 214 kts | 192° |
| 2026-05-06 04:46 | 13.58290 | 100.70987 | 2853 ft | 230 kts | 192° |
| 2026-05-06 04:46 | 13.56666 | 100.70602 | 3129 ft | 245 kts | 192° |
| 2026-05-06 04:46 | 13.55002 | 100.70064 | 3390 ft | 263 kts | 209° |
| 2026-05-06 04:46 | 13.53673 | 100.68718 | 3764 ft | 276 kts | 240° |
| 2026-05-06 04:47 | 13.53160 | 100.66812 | 4358 ft | 280 kts | 270° |
| 2026-05-06 04:47 | 13.53509 | 100.64866 | 5002 ft | 281 kts | 286° |
| 2026-05-06 04:47 | 13.54043 | 100.62933 | 5625 ft | 284 kts | 286° |
| 2026-05-06 04:47 | 13.54568 | 100.60967 | 6270 ft | 287 kts | 285° |
| 2026-05-06 04:48 | 13.55299 | 100.59057 | 6880 ft | 289 kts | 306° |
| 2026-05-06 04:48 | 13.56775 | 100.57695 | 7508 ft | 288 kts | 334° |
| 2026-05-06 04:48 | 13.58695 | 100.57159 | 8126 ft | 286 kts | 359° |
| 2026-05-06 04:48 | 13.60695 | 100.57221 | 8745 ft | 288 kts | 4° |
| 2026-05-06 04:49 | 13.62700 | 100.57320 | 9326 ft | 291 kts | 4° |
| 2026-05-06 04:49 | 13.64730 | 100.57449 | 9893 ft | 294 kts | 10° |
| 2026-05-06 04:49 | 13.66724 | 100.58064 | 10318 ft | 301 kts | 27° |
| 2026-05-06 04:49 | 13.68501 | 100.59263 | 10571 ft | 314 kts | 40° |
| 2026-05-06 04:50 | 13.70215 | 100.60744 | 10822 ft | 328 kts | 41° |
| 2026-05-06 04:50 | 13.71964 | 100.62288 | 11135 ft | 339 kts | 41° |
| 2026-05-06 04:50 | 13.73763 | 100.63902 | 11636 ft | 342 kts | 45° |
| 2026-05-06 04:50 | 13.75082 | 100.65897 | 12121 ft | 344 kts | 68° |
| 2026-05-06 04:51 | 13.75560 | 100.68293 | 12633 ft | 346 kts | 89° |
| 2026-05-06 04:51 | 13.75532 | 100.70784 | 13161 ft | 348 kts | 91° |
| 2026-05-06 04:51 | 13.75481 | 100.73275 | 13637 ft | 351 kts | 91° |
| 2026-05-06 04:51 | 13.75446 | 100.75768 | 14115 ft | 354 kts | 90° |
| 2026-05-06 04:52 | 13.75426 | 100.78308 | 14592 ft | 356 kts | 90° |
| 2026-05-06 04:52 | 13.75414 | 100.80865 | 15057 ft | 359 kts | 90° |
| 2026-05-06 04:52 | 13.75404 | 100.83427 | 15519 ft | 361 kts | 90° |
| 2026-05-06 04:52 | 13.75395 | 100.85995 | 15967 ft | 364 kts | 90° |
| 2026-05-06 04:53 | 13.75385 | 100.88599 | 16408 ft | 366 kts | 89° |
| 2026-05-06 04:53 | 13.75376 | 100.91229 | 16856 ft | 368 kts | 89° |
| 2026-05-06 04:53 | 13.75366 | 100.93867 | 17282 ft | 370 kts | 89° |
| 2026-05-06 04:53 | 13.75356 | 100.96519 | 17688 ft | 372 kts | 89° |
| 2026-05-06 04:54 | 13.75345 | 100.99172 | 18072 ft | 375 kts | 89° |
| 2026-05-06 04:54 | 13.75333 | 101.01887 | 18455 ft | 378 kts | 89° |
| 2026-05-06 04:54 | 13.75321 | 101.04575 | 18836 ft | 381 kts | 89° |
| 2026-05-06 04:54 | 13.75309 | 101.07293 | 19210 ft | 383 kts | 89° |
| 2026-05-06 04:55 | 13.75296 | 101.10035 | 19582 ft | 385 kts | 89° |
| 2026-05-06 04:55 | 13.75284 | 101.12788 | 19950 ft | 388 kts | 89° |
| 2026-05-06 04:55 | 13.75271 | 101.15578 | 20306 ft | 390 kts | 89° |
| 2026-05-06 04:55 | 13.75256 | 101.18384 | 20658 ft | 392 kts | 89° |
| 2026-05-06 04:56 | 13.75296 | 101.21160 | 20994 ft | 394 kts | 86° |
| 2026-05-06 04:56 | 13.75538 | 101.23997 | 21327 ft | 396 kts | 81° |
| 2026-05-06 04:56 | 13.75991 | 101.26775 | 21642 ft | 398 kts | 77° |
| 2026-05-06 04:56 | 13.76560 | 101.29545 | 21948 ft | 400 kts | 77° |
| 2026-05-06 04:57 | 13.77151 | 101.32347 | 22254 ft | 402 kts | 76° |
| 2026-05-06 04:57 | 13.77747 | 101.35156 | 22560 ft | 404 kts | 77° |
| 2026-05-06 04:57 | 13.78346 | 101.37994 | 22866 ft | 406 kts | 77° |
| 2026-05-06 04:57 | 13.78939 | 101.40818 | 23170 ft | 408 kts | 77° |
| 2026-05-06 04:58 | 13.79539 | 101.43686 | 23468 ft | 410 kts | 77° |
| 2026-05-06 04:58 | 13.80137 | 101.46552 | 23752 ft | 412 kts | 77° |
| 2026-05-06 04:58 | 13.80733 | 101.49415 | 24019 ft | 414 kts | 77° |
| 2026-05-06 04:58 | 13.81336 | 101.52312 | 24284 ft | 416 kts | 77° |
| 2026-05-06 04:59 | 13.81939 | 101.55212 | 24541 ft | 418 kts | 77° |
| 2026-05-06 04:59 | 13.82553 | 101.58166 | 24798 ft | 420 kts | 77° |
| 2026-05-06 04:59 | 13.83161 | 101.61090 | 25055 ft | 421 kts | 77° |
| 2026-05-06 04:59 | 13.83769 | 101.64014 | 25308 ft | 423 kts | 77° |
| 2026-05-06 05:00 | 13.84390 | 101.67004 | 25565 ft | 425 kts | 77° |
| 2026-05-06 05:00 | 13.84999 | 101.69939 | 25820 ft | 426 kts | 77° |
| 2026-05-06 05:00 | 13.85620 | 101.72940 | 26069 ft | 428 kts | 77° |
| 2026-05-06 05:00 | 13.86235 | 101.75909 | 26315 ft | 429 kts | 77° |
| 2026-05-06 05:01 | 13.86863 | 101.78948 | 26555 ft | 431 kts | 78° |
| 2026-05-06 05:01 | 13.87367 | 101.81979 | 26783 ft | 433 kts | 82° |
| 2026-05-06 05:01 | 13.87654 | 101.85053 | 27004 ft | 435 kts | 86° |
| 2026-05-06 05:01 | 13.87718 | 101.88183 | 27224 ft | 437 kts | 90° |
| 2026-05-06 05:02 | 13.87679 | 101.91266 | 27442 ft | 439 kts | 90° |
| 2026-05-06 05:02 | 13.87622 | 101.94421 | 27654 ft | 441 kts | 90° |
| 2026-05-06 05:02 | 13.87565 | 101.97564 | 27866 ft | 442 kts | 90° |
| 2026-05-06 05:02 | 13.87509 | 102.00712 | 28087 ft | 444 kts | 90° |
| 2026-05-06 05:03 | 13.87455 | 102.03918 | 28316 ft | 445 kts | 90° |
| 2026-05-06 05:03 | 13.87401 | 102.07097 | 28546 ft | 446 kts | 90° |
| 2026-05-06 05:03 | 13.87351 | 102.10265 | 28766 ft | 447 kts | 90° |
| 2026-05-06 05:03 | 13.87299 | 102.13455 | 28975 ft | 448 kts | 90° |
| 2026-05-06 05:04 | 13.87247 | 102.16657 | 29181 ft | 450 kts | 90° |
| 2026-05-06 05:04 | 13.87194 | 102.19889 | 29386 ft | 451 kts | 90° |
| 2026-05-06 05:04 | 13.87140 | 102.23121 | 29590 ft | 453 kts | 90° |
| 2026-05-06 05:04 | 13.87085 | 102.26320 | 29779 ft | 454 kts | 90° |
| 2026-05-06 05:05 | 13.87029 | 102.29593 | 29970 ft | 456 kts | 90° |
| 2026-05-06 05:05 | 13.86974 | 102.32842 | 30156 ft | 457 kts | 90° |
| 2026-05-06 05:05 | 13.86916 | 102.36115 | 30401 ft | 457 kts | 90° |
| 2026-05-06 05:05 | 13.86858 | 102.39379 | 30692 ft | 456 kts | 90° |
| 2026-05-06 05:06 | 13.86800 | 102.42639 | 30974 ft | 455 kts | 90° |
| 2026-05-06 05:06 | 13.86743 | 102.45875 | 31241 ft | 455 kts | 90° |
| 2026-05-06 05:06 | 13.86685 | 102.49088 | 31500 ft | 454 kts | 90° |
| 2026-05-06 05:06 | 13.86627 | 102.52360 | 31771 ft | 453 kts | 90° |